Bright Ocean — HOGQ — position and weather

sailwx.info

Track history (hours):
 
Tides and Currents Weather Stations Pressure Air Temp Water Temp Dewpoint Dewpoint Depression Visibility Wind Speed Wind Dir Waves Ship Positions

Bright Ocean

Last reported at 2017-Mar-22 20:17 UTC. Time now 2017-Mar-29 19:01 UTC.
Position N 33°56' E 131°46'.

Length 178 m; draft 8.3 m.

Type: Cargo ship. MMSI: 373816000.

Date/timePositionNaut miles runAvg speedWind from/ knotsBaromVisibWave heightAir tempDewpointWater temp
2017-Mar-22 20:17N 33°56' E 131°46'10 8.8
2017-Mar-22 19:06N 33°53' E 131°34'  
2017-Mar-16 13:32N 34°00' E 134°56'1212.5
2017-Mar-16 12:33N 34°12' E 134°58'1311.7
2017-Mar-16 11:28N 34°24' E 135°03'1213.1
2017-Mar-16 10:33N 34°32' E 135°14'1010.1
2017-Mar-16 09:33N 34°42' E 135°17'0 0.2
2017-Mar-16 08:32N 34°42' E 135°17'0 0.0
2017-Mar-16 07:32N 34°42' E 135°17'0 0.0
2017-Mar-16 06:32N 34°42' E 135°17'0 0.0
2017-Mar-16 05:32N 34°42' E 135°17'0 0.0
2017-Mar-16 04:32N 34°42' E 135°17'0 0.0
2017-Mar-16 03:20N 34°42' E 135°17'0 0.0
2017-Mar-16 02:32N 34°42' E 135°17'0 0.0
2017-Mar-16 01:26N 34°42' E 135°17'0 0.0
2017-Mar-16 00:32N 34°42' E 135°17'0 0.0
2017-Mar-15 23:32N 34°42' E 135°17'2 1.6
2017-Mar-15 22:33N 34°41' E 135°17'2 2.1
2017-Mar-15 21:33N 34°42' E 135°16'0 0.0
2017-Mar-15 20:33N 34°42' E 135°16'0 0.0
2017-Mar-15 19:33N 34°42' E 135°16'0 0.0
2017-Mar-15 18:33N 34°42' E 135°16'0 0.0
2017-Mar-15 17:33N 34°42' E 135°16'0 0.0
2017-Mar-15 16:33N 34°42' E 135°16'0 0.0
2017-Mar-15 15:33N 34°42' E 135°16'0 0.0
2017-Mar-15 14:27N 34°42' E 135°16'0 0.0
2017-Mar-15 13:33N 34°42' E 135°16'0 0.0
2017-Mar-15 12:33N 34°42' E 135°16'0 0.0
2017-Mar-15 11:33N 34°42' E 135°16'0 0.0
2017-Mar-15 10:33N 34°42' E 135°16'0 0.0
2017-Mar-15 09:27N 34°42' E 135°16'0 0.0
2017-Mar-15 08:33N 34°42' E 135°16'0 0.0
2017-Mar-15 07:33N 34°42' E 135°16'0 0.0
2017-Mar-15 06:21N 34°42' E 135°16'0 0.0
2017-Mar-15 05:33N 34°42' E 135°16'0 0.0
2017-Mar-15 04:33N 34°42' E 135°16'0 0.0
2017-Mar-15 03:33N 34°42' E 135°16'0 0.0
2017-Mar-15 02:21N 34°42' E 135°16'0 0.0
2017-Mar-15 01:33N 34°42' E 135°16'0 0.0
2017-Mar-15 00:33N 34°42' E 135°16'0 0.0
2017-Mar-14 23:33N 34°42' E 135°16'1 1.1
2017-Mar-14 22:33N 34°41' E 135°15'3 2.2
2017-Mar-14 21:22N 34°42' E 135°18'0 0.0
2017-Mar-14 20:22N 34°42' E 135°18'0 0.0
2017-Mar-14 19:28N 34°42' E 135°18'0 0.0
2017-Mar-14 18:28N 34°42' E 135°18'0 0.0
2017-Mar-14 17:22N 34°42' E 135°18'0 0.0
2017-Mar-14 16:22N 34°42' E 135°18'0 0.0
2017-Mar-14 15:04N 34°42' E 135°18'0 0.0
2017-Mar-14 14:28N 34°42' E 135°18'0 0.0
2017-Mar-14 13:16N 34°42' E 135°18'0 0.0
2017-Mar-14 12:28N 34°42' E 135°18'0 0.0
2017-Mar-14 11:28N 34°42' E 135°18'0 0.0
2017-Mar-14 10:28N 34°42' E 135°18'0 0.0
2017-Mar-14 09:28N 34°42' E 135°18'0 0.0
2017-Mar-14 08:16N 34°42' E 135°18'0 0.0
2017-Mar-14 07:28N 34°42' E 135°18'0 0.0
2017-Mar-14 06:16N 34°42' E 135°18'0 0.0
2017-Mar-14 05:16N 34°42' E 135°18'0 0.0
2017-Mar-14 04:28N 34°42' E 135°18'0 0.0
2017-Mar-14 03:28N 34°42' E 135°18'0 0.0
2017-Mar-14 02:28N 34°42' E 135°18'0 0.0
2017-Mar-14 01:22N 34°42' E 135°18'0 0.0
2017-Mar-14 00:28N 34°42' E 135°18'0 0.0
2017-Mar-13 23:28N 34°42' E 135°18'0 0.0
2017-Mar-13 22:28N 34°42' E 135°18'0 0.0
2017-Mar-13 21:28N 34°42' E 135°18'0 0.0
2017-Mar-13 20:28N 34°42' E 135°18'0 0.0
2017-Mar-13 19:28N 34°42' E 135°18'0 0.0
2017-Mar-13 18:22N 34°42' E 135°18'0 0.0
2017-Mar-13 17:28N 34°42' E 135°18'0 0.0
2017-Mar-13 16:28N 34°42' E 135°18'0 0.0
2017-Mar-13 15:28N 34°42' E 135°18'0 0.0
2017-Mar-13 14:28N 34°42' E 135°18'0 0.0
2017-Mar-13 13:22N 34°42' E 135°18'0 0.0
2017-Mar-13 12:28N 34°42' E 135°18'0 0.0
2017-Mar-13 11:22N 34°42' E 135°18'0 0.0
2017-Mar-13 10:28N 34°42' E 135°18'0 0.0
2017-Mar-13 09:28N 34°42' E 135°18'0 0.0
2017-Mar-13 08:22N 34°42' E 135°18'0 0.0
2017-Mar-13 06:28N 34°42' E 135°18'0 0.0
2017-Mar-13 05:28N 34°42' E 135°18'0 0.0
2017-Mar-13 04:22N 34°42' E 135°18'0 0.0
2017-Mar-13 03:28N 34°42' E 135°18'0 0.0
2017-Mar-13 02:28N 34°42' E 135°18'0 0.0
2017-Mar-13 01:28N 34°42' E 135°18'0 0.0
2017-Mar-13 00:28N 34°42' E 135°18'0 0.0
2017-Mar-12 23:28N 34°42' E 135°18'0 0.0
2017-Mar-12 22:29N 34°42' E 135°18'4 4.4
2017-Mar-12 21:33N 34°38' E 135°18'0 0.0
2017-Mar-12 20:31N 34°38' E 135°18'  
Track history (hours):
 
Tides and Currents Weather Stations Pressure Air Temp Water Temp Dewpoint Dewpoint Depression Visibility Wind Speed Wind Dir Waves Ship Positions

Bright Ocean

Last reported at 2017-Mar-22 20:17 UTC. Time now 2017-Mar-29 19:01 UTC.
Position N 33°56' E 131°46'.

Length 178 m; draft 8.3 m.

Type: Cargo ship. MMSI: 373816000.

Date/timePositionNaut miles runAvg speedWind from/ knotsBaromVisibWave heightAir tempDewpointWater temp
2017-Mar-22 20:17N 33°56' E 131°46'10 8.8
2017-Mar-22 19:06N 33°53' E 131°34'  
2017-Mar-16 13:32N 34°00' E 134°56'1212.5
2017-Mar-16 12:33N 34°12' E 134°58'1311.7
2017-Mar-16 11:28N 34°24' E 135°03'1213.1
2017-Mar-16 10:33N 34°32' E 135°14'1010.1
2017-Mar-16 09:33N 34°42' E 135°17'0 0.2
2017-Mar-16 08:32N 34°42' E 135°17'0 0.0
2017-Mar-16 07:32N 34°42' E 135°17'0 0.0
2017-Mar-16 06:32N 34°42' E 135°17'0 0.0
2017-Mar-16 05:32N 34°42' E 135°17'0 0.0
2017-Mar-16 04:32N 34°42' E 135°17'0 0.0
2017-Mar-16 03:20N 34°42' E 135°17'0 0.0
2017-Mar-16 02:32N 34°42' E 135°17'0 0.0
2017-Mar-16 01:26N 34°42' E 135°17'0 0.0
2017-Mar-16 00:32N 34°42' E 135°17'0 0.0
2017-Mar-15 23:32N 34°42' E 135°17'2 1.6
2017-Mar-15 22:33N 34°41' E 135°17'2 2.1
2017-Mar-15 21:33N 34°42' E 135°16'0 0.0
2017-Mar-15 20:33N 34°42' E 135°16'0 0.0
2017-Mar-15 19:33N 34°42' E 135°16'0 0.0
2017-Mar-15 18:33N 34°42' E 135°16'0 0.0
2017-Mar-15 17:33N 34°42' E 135°16'0 0.0
2017-Mar-15 16:33N 34°42' E 135°16'0 0.0
2017-Mar-15 15:33N 34°42' E 135°16'0 0.0
2017-Mar-15 14:27N 34°42' E 135°16'0 0.0
2017-Mar-15 13:33N 34°42' E 135°16'0 0.0
2017-Mar-15 12:33N 34°42' E 135°16'0 0.0
2017-Mar-15 11:33N 34°42' E 135°16'0 0.0
2017-Mar-15 10:33N 34°42' E 135°16'0 0.0
2017-Mar-15 09:27N 34°42' E 135°16'0 0.0
2017-Mar-15 08:33N 34°42' E 135°16'0 0.0
2017-Mar-15 07:33N 34°42' E 135°16'0 0.0
2017-Mar-15 06:21N 34°42' E 135°16'0 0.0
2017-Mar-15 05:33N 34°42' E 135°16'0 0.0
2017-Mar-15 04:33N 34°42' E 135°16'0 0.0
2017-Mar-15 03:33N 34°42' E 135°16'0 0.0
2017-Mar-15 02:21N 34°42' E 135°16'0 0.0
2017-Mar-15 01:33N 34°42' E 135°16'0 0.0
2017-Mar-15 00:33N 34°42' E 135°16'0 0.0
2017-Mar-14 23:33N 34°42' E 135°16'1 1.1
2017-Mar-14 22:33N 34°41' E 135°15'3 2.2
2017-Mar-14 21:22N 34°42' E 135°18'0 0.0
2017-Mar-14 20:22N 34°42' E 135°18'0 0.0
2017-Mar-14 19:28N 34°42' E 135°18'0 0.0
2017-Mar-14 18:28N 34°42' E 135°18'0 0.0
2017-Mar-14 17:22N 34°42' E 135°18'0 0.0
2017-Mar-14 16:22N 34°42' E 135°18'0 0.0
2017-Mar-14 15:04N 34°42' E 135°18'0 0.0
2017-Mar-14 14:28N 34°42' E 135°18'0 0.0
2017-Mar-14 13:16N 34°42' E 135°18'0 0.0
2017-Mar-14 12:28N 34°42' E 135°18'0 0.0
2017-Mar-14 11:28N 34°42' E 135°18'0 0.0
2017-Mar-14 10:28N 34°42' E 135°18'0 0.0
2017-Mar-14 09:28N 34°42' E 135°18'0 0.0
2017-Mar-14 08:16N 34°42' E 135°18'0 0.0
2017-Mar-14 07:28N 34°42' E 135°18'0 0.0
2017-Mar-14 06:16N 34°42' E 135°18'0 0.0
2017-Mar-14 05:16N 34°42' E 135°18'0 0.0
2017-Mar-14 04:28N 34°42' E 135°18'0 0.0
2017-Mar-14 03:28N 34°42' E 135°18'0 0.0
2017-Mar-14 02:28N 34°42' E 135°18'0 0.0
2017-Mar-14 01:22N 34°42' E 135°18'0 0.0
2017-Mar-14 00:28N 34°42' E 135°18'0 0.0
2017-Mar-13 23:28N 34°42' E 135°18'0 0.0
2017-Mar-13 22:28N 34°42' E 135°18'0 0.0
2017-Mar-13 21:28N 34°42' E 135°18'0 0.0
2017-Mar-13 20:28N 34°42' E 135°18'0 0.0
2017-Mar-13 19:28N 34°42' E 135°18'0 0.0
2017-Mar-13 18:22N 34°42' E 135°18'0 0.0
2017-Mar-13 17:28N 34°42' E 135°18'0 0.0
2017-Mar-13 16:28N 34°42' E 135°18'0 0.0
2017-Mar-13 15:28N 34°42' E 135°18'0 0.0
2017-Mar-13 14:28N 34°42' E 135°18'0 0.0
2017-Mar-13 13:22N 34°42' E 135°18'0 0.0
2017-Mar-13 12:28N 34°42' E 135°18'0 0.0
2017-Mar-13 11:22N 34°42' E 135°18'0 0.0
2017-Mar-13 10:28N 34°42' E 135°18'0 0.0
2017-Mar-13 09:28N 34°42' E 135°18'0 0.0
2017-Mar-13 08:22N 34°42' E 135°18'0 0.0
2017-Mar-13 06:28N 34°42' E 135°18'0 0.0
2017-Mar-13 05:28N 34°42' E 135°18'0 0.0
2017-Mar-13 04:22N 34°42' E 135°18'0 0.0
2017-Mar-13 03:28N 34°42' E 135°18'0 0.0
2017-Mar-13 02:28N 34°42' E 135°18'0 0.0
2017-Mar-13 01:28N 34°42' E 135°18'0 0.0
2017-Mar-13 00:28N 34°42' E 135°18'0 0.0
2017-Mar-12 23:28N 34°42' E 135°18'0 0.0
2017-Mar-12 22:29N 34°42' E 135°18'4 4.4
2017-Mar-12 21:33N 34°38' E 135°18'0 0.0
2017-Mar-12 20:31N 34°38' E 135°18'  

Dump ship's entire track history